sensor_id;sensor_type;location;lat;lon;timestamp;temperature;humidity
9847;DHT22;4962;50.084;8.794;2022-12-07T00:01:38;9.90;99.90
9847;DHT22;4962;50.084;8.794;2022-12-07T00:04:08;9.90;99.90
9847;DHT22;4962;50.084;8.794;2022-12-07T00:06:37;9.90;99.90
9847;DHT22;4962;50.084;8.794;2022-12-07T00:09:05;9.80;99.90
9847;DHT22;4962;50.084;8.794;2022-12-07T00:11:33;9.80;99.90
9847;DHT22;4962;50.084;8.794;2022-12-07T00:14:02;9.90;99.90
9847;DHT22;4962;50.084;8.794;2022-12-07T00:16:30;9.80;99.90
9847;DHT22;4962;50.084;8.794;2022-12-07T00:18:58;9.80;99.90
9847;DHT22;4962;50.084;8.794;2022-12-07T00:21:28;9.90;99.90
9847;DHT22;4962;50.084;8.794;2022-12-07T00:23:56;9.80;99.90
9847;DHT22;4962;50.084;8.794;2022-12-07T00:26:25;9.80;99.90
9847;DHT22;4962;50.084;8.794;2022-12-07T00:28:54;9.80;99.90
9847;DHT22;4962;50.084;8.794;2022-12-07T00:31:23;9.90;99.90
9847;DHT22;4962;50.084;8.794;2022-12-07T00:33:51;9.90;99.90
9847;DHT22;4962;50.084;8.794;2022-12-07T00:36:19;9.90;99.90
9847;DHT22;4962;50.084;8.794;2022-12-07T00:38:47;9.90;99.90
9847;DHT22;4962;50.084;8.794;2022-12-07T00:41:16;9.90;99.90
9847;DHT22;4962;50.084;8.794;2022-12-07T00:43:44;9.90;99.90
9847;DHT22;4962;50.084;8.794;2022-12-07T00:46:12;9.90;99.90
9847;DHT22;4962;50.084;8.794;2022-12-07T00:48:40;9.90;99.90
9847;DHT22;4962;50.084;8.794;2022-12-07T00:51:07;9.90;99.90
9847;DHT22;4962;50.084;8.794;2022-12-07T00:53:35;9.90;99.90
9847;DHT22;4962;50.084;8.794;2022-12-07T00:56:06;9.80;99.90
9847;DHT22;4962;50.084;8.794;2022-12-07T00:58:33;9.90;99.90
9847;DHT22;4962;50.084;8.794;2022-12-07T01:01:01;9.90;99.90
9847;DHT22;4962;50.084;8.794;2022-12-07T01:03:28;9.90;99.90
9847;DHT22;4962;50.084;8.794;2022-12-07T01:05:56;9.90;99.90
9847;DHT22;4962;50.084;8.794;2022-12-07T01:08:24;10.00;99.90
9847;DHT22;4962;50.084;8.794;2022-12-07T01:10:59;9.90;99.90
9847;DHT22;4962;50.084;8.794;2022-12-07T01:13:28;9.90;99.90
9847;DHT22;4962;50.084;8.794;2022-12-07T01:15:57;9.90;99.90
9847;DHT22;4962;50.084;8.794;2022-12-07T01:18:23;9.90;99.90
9847;DHT22;4962;50.084;8.794;2022-12-07T01:20:57;9.90;99.90
9847;DHT22;4962;50.084;8.794;2022-12-07T01:23:24;9.90;99.90
9847;DHT22;4962;50.084;8.794;2022-12-07T01:25:54;9.90;99.90
9847;DHT22;4962;50.084;8.794;2022-12-07T01:28:24;9.90;99.90
9847;DHT22;4962;50.084;8.794;2022-12-07T01:31:00;9.90;99.90
9847;DHT22;4962;50.084;8.794;2022-12-07T01:33:28;9.90;99.90
9847;DHT22;4962;50.084;8.794;2022-12-07T01:36:00;9.90;99.90
9847;DHT22;4962;50.084;8.794;2022-12-07T01:38:28;9.90;99.90
9847;DHT22;4962;50.084;8.794;2022-12-07T01:40:55;9.90;99.90
9847;DHT22;4962;50.084;8.794;2022-12-07T01:43:23;9.90;99.90
9847;DHT22;4962;50.084;8.794;2022-12-07T01:45:51;9.90;99.90
9847;DHT22;4962;50.084;8.794;2022-12-07T01:48:22;9.90;99.90
9847;DHT22;4962;50.084;8.794;2022-12-07T01:50:52;10.00;99.90
9847;DHT22;4962;50.084;8.794;2022-12-07T01:53:21;9.90;99.90
9847;DHT22;4962;50.084;8.794;2022-12-07T01:55:52;10.00;99.90
9847;DHT22;4962;50.084;8.794;2022-12-07T01:58:20;9.90;99.90
9847;DHT22;4962;50.084;8.794;2022-12-07T02:00:48;9.90;99.90
9847;DHT22;4962;50.084;8.794;2022-12-07T02:03:18;9.90;99.90
9847;DHT22;4962;50.084;8.794;2022-12-07T02:05:48;9.90;99.90
9847;DHT22;4962;50.084;8.794;2022-12-07T02:08:16;9.90;99.90
9847;DHT22;4962;50.084;8.794;2022-12-07T02:10:43;9.90;99.90
9847;DHT22;4962;50.084;8.794;2022-12-07T02:13:13;9.90;99.90
9847;DHT22;4962;50.084;8.794;2022-12-07T02:16:01;9.90;99.90
9847;DHT22;4962;50.084;8.794;2022-12-07T02:18:42;9.90;99.90
9847;DHT22;4962;50.084;8.794;2022-12-07T02:21:13;9.90;99.90
9847;DHT22;4962;50.084;8.794;2022-12-07T02:24:05;9.90;99.90
9847;DHT22;4962;50.084;8.794;2022-12-07T02:27:11;9.90;99.90
9847;DHT22;4962;50.084;8.794;2022-12-07T02:29:47;9.90;99.90
9847;DHT22;4962;50.084;8.794;2022-12-07T02:32:18;9.90;99.90
9847;DHT22;4962;50.084;8.794;2022-12-07T02:34:50;9.90;99.90
9847;DHT22;4962;50.084;8.794;2022-12-07T02:37:29;9.80;99.90
9847;DHT22;4962;50.084;8.794;2022-12-07T02:40:04;9.90;99.90
9847;DHT22;4962;50.084;8.794;2022-12-07T02:42:36;9.90;99.90
9847;DHT22;4962;50.084;8.794;2022-12-07T02:45:11;9.90;99.90
9847;DHT22;4962;50.084;8.794;2022-12-07T02:47:41;9.90;99.90
9847;DHT22;4962;50.084;8.794;2022-12-07T02:50:09;9.90;99.90
9847;DHT22;4962;50.084;8.794;2022-12-07T02:52:36;9.90;99.90
9847;DHT22;4962;50.084;8.794;2022-12-07T02:55:04;9.90;99.90
9847;DHT22;4962;50.084;8.794;2022-12-07T02:57:42;9.80;99.90
9847;DHT22;4962;50.084;8.794;2022-12-07T03:00:16;9.80;99.90
9847;DHT22;4962;50.084;8.794;2022-12-07T03:02:51;9.80;99.90
9847;DHT22;4962;50.084;8.794;2022-12-07T03:08:23;9.80;99.90
9847;DHT22;4962;50.084;8.794;2022-12-07T03:10:56;9.80;99.90
9847;DHT22;4962;50.084;8.794;2022-12-07T03:13:28;9.80;99.90
9847;DHT22;4962;50.084;8.794;2022-12-07T03:16:02;9.80;99.90
9847;DHT22;4962;50.084;8.794;2022-12-07T03:18:35;9.80;99.90
9847;DHT22;4962;50.084;8.794;2022-12-07T03:21:06;9.70;99.90
9847;DHT22;4962;50.084;8.794;2022-12-07T03:23:35;9.70;99.90
9847;DHT22;4962;50.084;8.794;2022-12-07T03:26:04;9.70;99.90
9847;DHT22;4962;50.084;8.794;2022-12-07T03:28:36;9.70;99.90
9847;DHT22;4962;50.084;8.794;2022-12-07T03:31:11;9.70;99.90
9847;DHT22;4962;50.084;8.794;2022-12-07T03:33:42;9.70;99.90
9847;DHT22;4962;50.084;8.794;2022-12-07T03:36:16;9.60;99.90
9847;DHT22;4962;50.084;8.794;2022-12-07T03:38:49;9.60;99.90
9847;DHT22;4962;50.084;8.794;2022-12-07T03:41:19;9.60;99.90
9847;DHT22;4962;50.084;8.794;2022-12-07T03:43:49;9.60;99.90
9847;DHT22;4962;50.084;8.794;2022-12-07T03:46:21;9.50;99.90
9847;DHT22;4962;50.084;8.794;2022-12-07T03:48:56;9.50;99.90
9847;DHT22;4962;50.084;8.794;2022-12-07T03:51:28;9.50;99.90
9847;DHT22;4962;50.084;8.794;2022-12-07T03:54:00;9.60;99.90
9847;DHT22;4962;50.084;8.794;2022-12-07T03:56:29;9.60;99.90
9847;DHT22;4962;50.084;8.794;2022-12-07T03:58:56;9.60;99.90
9847;DHT22;4962;50.084;8.794;2022-12-07T04:01:25;9.50;99.90
9847;DHT22;4962;50.084;8.794;2022-12-07T04:03:52;9.60;99.90
9847;DHT22;4962;50.084;8.794;2022-12-07T04:06:19;9.60;99.90
9847;DHT22;4962;50.084;8.794;2022-12-07T04:08:46;9.50;99.90
9847;DHT22;4962;50.084;8.794;2022-12-07T04:11:12;9.60;99.90
9847;DHT22;4962;50.084;8.794;2022-12-07T04:13:39;9.60;99.90
9847;DHT22;4962;50.084;8.794;2022-12-07T04:16:25;9.60;99.90
9847;DHT22;4962;50.084;8.794;2022-12-07T04:18:52;9.60;99.90
9847;DHT22;4962;50.084;8.794;2022-12-07T04:21:19;9.50;99.90
9847;DHT22;4962;50.084;8.794;2022-12-07T04:23:45;9.50;99.90
9847;DHT22;4962;50.084;8.794;2022-12-07T04:26:12;9.50;99.90
9847;DHT22;4962;50.084;8.794;2022-12-07T04:28:39;9.50;99.90
9847;DHT22;4962;50.084;8.794;2022-12-07T04:31:06;9.50;99.90
9847;DHT22;4962;50.084;8.794;2022-12-07T04:33:35;9.50;99.90
9847;DHT22;4962;50.084;8.794;2022-12-07T04:36:02;9.50;99.90
9847;DHT22;4962;50.084;8.794;2022-12-07T04:38:28;9.50;99.90
9847;DHT22;4962;50.084;8.794;2022-12-07T04:40:55;9.50;99.90
9847;DHT22;4962;50.084;8.794;2022-12-07T04:43:22;9.50;99.90
9847;DHT22;4962;50.084;8.794;2022-12-07T04:45:49;9.30;99.90
9847;DHT22;4962;50.084;8.794;2022-12-07T04:48:16;9.40;99.90
9847;DHT22;4962;50.084;8.794;2022-12-07T04:50:47;9.40;99.90
9847;DHT22;4962;50.084;8.794;2022-12-07T04:53:15;9.50;99.90
9847;DHT22;4962;50.084;8.794;2022-12-07T04:55:42;9.40;99.90
9847;DHT22;4962;50.084;8.794;2022-12-07T04:58:09;9.40;99.90
9847;DHT22;4962;50.084;8.794;2022-12-07T05:00:38;9.30;99.90
9847;DHT22;4962;50.084;8.794;2022-12-07T05:03:05;9.30;99.90
9847;DHT22;4962;50.084;8.794;2022-12-07T05:05:32;9.30;99.90
9847;DHT22;4962;50.084;8.794;2022-12-07T05:08:00;9.30;99.90
9847;DHT22;4962;50.084;8.794;2022-12-07T05:10:27;9.30;99.90
9847;DHT22;4962;50.084;8.794;2022-12-07T05:12:54;9.30;99.90
9847;DHT22;4962;50.084;8.794;2022-12-07T05:15:21;9.20;99.90
9847;DHT22;4962;50.084;8.794;2022-12-07T05:17:47;9.30;99.90
9847;DHT22;4962;50.084;8.794;2022-12-07T05:20:14;9.20;99.90
9847;DHT22;4962;50.084;8.794;2022-12-07T05:22:41;9.20;99.90
9847;DHT22;4962;50.084;8.794;2022-12-07T05:25:10;9.20;99.90
9847;DHT22;4962;50.084;8.794;2022-12-07T05:27:37;9.20;99.90
9847;DHT22;4962;50.084;8.794;2022-12-07T05:30:05;9.20;99.90
9847;DHT22;4962;50.084;8.794;2022-12-07T05:32:32;9.20;99.90
9847;DHT22;4962;50.084;8.794;2022-12-07T05:34:59;9.20;99.90
9847;DHT22;4962;50.084;8.794;2022-12-07T05:37:26;9.20;99.90
9847;DHT22;4962;50.084;8.794;2022-12-07T05:39:53;9.20;99.90
9847;DHT22;4962;50.084;8.794;2022-12-07T05:42:22;9.20;99.90
9847;DHT22;4962;50.084;8.794;2022-12-07T05:44:49;9.20;99.90
9847;DHT22;4962;50.084;8.794;2022-12-07T05:47:16;9.20;99.90
9847;DHT22;4962;50.084;8.794;2022-12-07T05:49:43;9.20;99.90
9847;DHT22;4962;50.084;8.794;2022-12-07T05:52:10;9.10;99.90
9847;DHT22;4962;50.084;8.794;2022-12-07T05:54:37;9.20;99.90
9847;DHT22;4962;50.084;8.794;2022-12-07T05:57:03;9.20;99.90
9847;DHT22;4962;50.084;8.794;2022-12-07T05:59:32;9.20;99.90
9847;DHT22;4962;50.084;8.794;2022-12-07T06:01:59;9.20;99.90
9847;DHT22;4962;50.084;8.794;2022-12-07T06:04:29;9.20;99.90
9847;DHT22;4962;50.084;8.794;2022-12-07T06:06:56;9.20;99.90
9847;DHT22;4962;50.084;8.794;2022-12-07T06:13:13;9.20;99.90
9847;DHT22;4962;50.084;8.794;2022-12-07T06:15:51;9.20;99.90
9847;DHT22;4962;50.084;8.794;2022-12-07T06:19:18;9.20;99.90
9847;DHT22;4962;50.084;8.794;2022-12-07T06:28:35;9.30;99.90
9847;DHT22;4962;50.084;8.794;2022-12-07T06:31:04;9.30;99.90
9847;DHT22;4962;50.084;8.794;2022-12-07T06:33:31;9.20;99.90
9847;DHT22;4962;50.084;8.794;2022-12-07T06:35:58;9.30;99.90
9847;DHT22;4962;50.084;8.794;2022-12-07T06:38:25;9.20;99.90
9847;DHT22;4962;50.084;8.794;2022-12-07T06:40:52;9.30;99.90
9847;DHT22;4962;50.084;8.794;2022-12-07T06:43:19;9.30;99.90
9847;DHT22;4962;50.084;8.794;2022-12-07T06:45:47;9.30;99.90
9847;DHT22;4962;50.084;8.794;2022-12-07T06:48:15;9.30;99.90
9847;DHT22;4962;50.084;8.794;2022-12-07T06:50:44;9.20;99.90
9847;DHT22;4962;50.084;8.794;2022-12-07T06:53:11;9.20;99.90
9847;DHT22;4962;50.084;8.794;2022-12-07T06:55:39;9.20;99.90
9847;DHT22;4962;50.084;8.794;2022-12-07T06:58:14;9.10;99.90
9847;DHT22;4962;50.084;8.794;2022-12-07T07:06:05;9.10;99.90
9847;DHT22;4962;50.084;8.794;2022-12-07T07:08:32;9.10;99.90
9847;DHT22;4962;50.084;8.794;2022-12-07T07:10:59;9.10;99.90
9847;DHT22;4962;50.084;8.794;2022-12-07T07:13:27;9.10;99.90
9847;DHT22;4962;50.084;8.794;2022-12-07T07:15:54;9.10;99.90
9847;DHT22;4962;50.084;8.794;2022-12-07T07:18:22;9.10;99.90
9847;DHT22;4962;50.084;8.794;2022-12-07T07:20:50;9.10;99.90
9847;DHT22;4962;50.084;8.794;2022-12-07T07:23:19;9.10;99.90
9847;DHT22;4962;50.084;8.794;2022-12-07T07:25:47;9.10;99.90
9847;DHT22;4962;50.084;8.794;2022-12-07T07:28:15;9.00;99.90
9847;DHT22;4962;50.084;8.794;2022-12-07T07:30:43;9.00;99.90
9847;DHT22;4962;50.084;8.794;2022-12-07T07:33:10;9.00;99.90
9847;DHT22;4962;50.084;8.794;2022-12-07T07:35:37;9.00;99.90
9847;DHT22;4962;50.084;8.794;2022-12-07T07:38:05;9.00;99.90
9847;DHT22;4962;50.084;8.794;2022-12-07T07:40:33;9.00;99.90
9847;DHT22;4962;50.084;8.794;2022-12-07T07:43:00;9.00;99.90
9847;DHT22;4962;50.084;8.794;2022-12-07T07:45:28;9.00;99.90
9847;DHT22;4962;50.084;8.794;2022-12-07T07:47:55;9.00;99.90
9847;DHT22;4962;50.084;8.794;2022-12-07T07:50:22;9.10;99.90
9847;DHT22;4962;50.084;8.794;2022-12-07T07:52:49;9.10;99.90
9847;DHT22;4962;50.084;8.794;2022-12-07T07:55:16;9.10;99.90
9847;DHT22;4962;50.084;8.794;2022-12-07T07:57:44;9.10;99.90
9847;DHT22;4962;50.084;8.794;2022-12-07T08:00:13;9.20;99.90
9847;DHT22;4962;50.084;8.794;2022-12-07T08:02:41;9.10;99.90
9847;DHT22;4962;50.084;8.794;2022-12-07T08:05:09;9.20;99.90
9847;DHT22;4962;50.084;8.794;2022-12-07T08:07:36;9.10;99.90
9847;DHT22;4962;50.084;8.794;2022-12-07T08:10:04;9.20;99.90
9847;DHT22;4962;50.084;8.794;2022-12-07T08:12:31;9.20;99.90
9847;DHT22;4962;50.084;8.794;2022-12-07T08:15:07;9.10;99.90
9847;DHT22;4962;50.084;8.794;2022-12-07T08:17:34;9.20;99.90
9847;DHT22;4962;50.084;8.794;2022-12-07T08:20:01;9.30;99.90
9847;DHT22;4962;50.084;8.794;2022-12-07T08:22:28;9.20;99.90
9847;DHT22;4962;50.084;8.794;2022-12-07T08:24:54;9.20;99.90
9847;DHT22;4962;50.084;8.794;2022-12-07T08:27:21;9.30;99.90
9847;DHT22;4962;50.084;8.794;2022-12-07T08:29:58;9.30;99.90
9847;DHT22;4962;50.084;8.794;2022-12-07T08:32:26;9.30;99.90
9847;DHT22;4962;50.084;8.794;2022-12-07T08:34:53;9.30;99.90
9847;DHT22;4962;50.084;8.794;2022-12-07T08:37:20;9.40;99.90
9847;DHT22;4962;50.084;8.794;2022-12-07T08:39:47;9.40;99.90
9847;DHT22;4962;50.084;8.794;2022-12-07T08:42:14;9.40;99.90
9847;DHT22;4962;50.084;8.794;2022-12-07T08:44:40;9.40;99.90
9847;DHT22;4962;50.084;8.794;2022-12-07T08:47:08;9.40;99.90
9847;DHT22;4962;50.084;8.794;2022-12-07T08:49:40;9.50;99.90
9847;DHT22;4962;50.084;8.794;2022-12-07T08:52:08;9.50;99.90
9847;DHT22;4962;50.084;8.794;2022-12-07T08:54:36;9.50;99.90
9847;DHT22;4962;50.084;8.794;2022-12-07T08:57:04;9.50;99.90
9847;DHT22;4962;50.084;8.794;2022-12-07T08:59:33;9.50;99.90
9847;DHT22;4962;50.084;8.794;2022-12-07T09:02:04;9.50;99.90
9847;DHT22;4962;50.084;8.794;2022-12-07T09:04:31;9.50;99.90
9847;DHT22;4962;50.084;8.794;2022-12-07T09:06:59;9.50;99.90
9847;DHT22;4962;50.084;8.794;2022-12-07T09:09:26;9.40;99.90
9847;DHT22;4962;50.084;8.794;2022-12-07T09:11:54;9.50;99.90
9847;DHT22;4962;50.084;8.794;2022-12-07T09:14:20;9.50;99.90
9847;DHT22;4962;50.084;8.794;2022-12-07T09:16:47;9.50;99.90
9847;DHT22;4962;50.084;8.794;2022-12-07T09:19:16;9.40;99.90
9847;DHT22;4962;50.084;8.794;2022-12-07T09:21:59;9.40;99.90
9847;DHT22;4962;50.084;8.794;2022-12-07T09:24:26;9.50;99.90
9847;DHT22;4962;50.084;8.794;2022-12-07T09:26:53;9.60;99.90
9847;DHT22;4962;50.084;8.794;2022-12-07T09:29:20;9.60;99.90
9847;DHT22;4962;50.084;8.794;2022-12-07T09:31:57;9.60;99.90
9847;DHT22;4962;50.084;8.794;2022-12-07T09:34:24;9.70;99.90
9847;DHT22;4962;50.084;8.794;2022-12-07T09:36:52;9.70;99.90
9847;DHT22;4962;50.084;8.794;2022-12-07T09:39:20;9.70;99.90
9847;DHT22;4962;50.084;8.794;2022-12-07T09:41:48;9.90;99.90
9847;DHT22;4962;50.084;8.794;2022-12-07T09:44:19;9.90;99.90
9847;DHT22;4962;50.084;8.794;2022-12-07T09:46:47;10.00;99.90
9847;DHT22;4962;50.084;8.794;2022-12-07T09:49:18;10.00;99.90
9847;DHT22;4962;50.084;8.794;2022-12-07T09:51:46;10.00;99.90
9847;DHT22;4962;50.084;8.794;2022-12-07T09:54:14;10.00;99.90
9847;DHT22;4962;50.084;8.794;2022-12-07T09:56:43;10.00;99.90
9847;DHT22;4962;50.084;8.794;2022-12-07T09:59:15;10.10;99.90
9847;DHT22;4962;50.084;8.794;2022-12-07T10:01:44;10.10;99.90
9847;DHT22;4962;50.084;8.794;2022-12-07T10:04:14;10.10;99.90
9847;DHT22;4962;50.084;8.794;2022-12-07T10:06:42;10.10;99.90
9847;DHT22;4962;50.084;8.794;2022-12-07T10:09:14;10.20;99.90
9847;DHT22;4962;50.084;8.794;2022-12-07T10:12:04;10.20;99.90
9847;DHT22;4962;50.084;8.794;2022-12-07T10:14:37;10.20;99.90
9847;DHT22;4962;50.084;8.794;2022-12-07T10:17:29;10.20;99.90
9847;DHT22;4962;50.084;8.794;2022-12-07T10:20:12;10.30;99.90
9847;DHT22;4962;50.084;8.794;2022-12-07T10:22:54;10.30;99.90
9847;DHT22;4962;50.084;8.794;2022-12-07T10:25:26;10.40;99.90
9847;DHT22;4962;50.084;8.794;2022-12-07T10:28:10;10.40;99.90
9847;DHT22;4962;50.084;8.794;2022-12-07T10:30:51;10.50;99.90
9847;DHT22;4962;50.084;8.794;2022-12-07T10:33:37;10.50;99.90
9847;DHT22;4962;50.084;8.794;2022-12-07T10:36:22;10.60;99.90
9847;DHT22;4962;50.084;8.794;2022-12-07T10:38:52;10.60;99.90
9847;DHT22;4962;50.084;8.794;2022-12-07T10:41:19;10.70;99.90
9847;DHT22;4962;50.084;8.794;2022-12-07T10:43:50;10.70;99.90
9847;DHT22;4962;50.084;8.794;2022-12-07T10:46:41;10.80;99.90
9847;DHT22;4962;50.084;8.794;2022-12-07T10:52:14;10.90;99.90
9847;DHT22;4962;50.084;8.794;2022-12-07T10:54:51;11.00;99.90
9847;DHT22;4962;50.084;8.794;2022-12-07T10:57:29;10.90;99.90
9847;DHT22;4962;50.084;8.794;2022-12-07T11:00:09;11.00;99.90
9847;DHT22;4962;50.084;8.794;2022-12-07T11:03:03;11.00;99.90
9847;DHT22;4962;50.084;8.794;2022-12-07T11:05:39;11.00;99.90
9847;DHT22;4962;50.084;8.794;2022-12-07T11:08:18;11.00;99.90
9847;DHT22;4962;50.084;8.794;2022-12-07T11:10:52;11.00;99.90
9847;DHT22;4962;50.084;8.794;2022-12-07T11:13:32;11.10;99.90
9847;DHT22;4962;50.084;8.794;2022-12-07T11:16:24;11.10;99.90
9847;DHT22;4962;50.084;8.794;2022-12-07T11:19:12;11.10;99.90
9847;DHT22;4962;50.084;8.794;2022-12-07T11:21:46;11.10;99.90
9847;DHT22;4962;50.084;8.794;2022-12-07T11:24:16;11.10;99.90
9847;DHT22;4962;50.084;8.794;2022-12-07T11:27:00;11.10;99.90
9847;DHT22;4962;50.084;8.794;2022-12-07T11:29:47;11.10;99.90
9847;DHT22;4962;50.084;8.794;2022-12-07T11:35:41;11.10;99.90
9847;DHT22;4962;50.084;8.794;2022-12-07T11:38:12;11.10;99.90
9847;DHT22;4962;50.084;8.794;2022-12-07T11:40:43;11.10;99.90
9847;DHT22;4962;50.084;8.794;2022-12-07T11:43:17;11.10;99.90
9847;DHT22;4962;50.084;8.794;2022-12-07T11:45:50;11.00;99.90
9847;DHT22;4962;50.084;8.794;2022-12-07T11:48:22;11.00;99.90
9847;DHT22;4962;50.084;8.794;2022-12-07T11:50:57;11.00;99.90
9847;DHT22;4962;50.084;8.794;2022-12-07T11:53:33;11.00;99.90
9847;DHT22;4962;50.084;8.794;2022-12-07T11:56:05;11.10;99.90
9847;DHT22;4962;50.084;8.794;2022-12-07T11:58:50;11.10;99.90
9847;DHT22;4962;50.084;8.794;2022-12-07T12:01:40;11.10;99.90
9847;DHT22;4962;50.084;8.794;2022-12-07T12:04:21;11.10;99.90
9847;DHT22;4962;50.084;8.794;2022-12-07T12:06:53;11.10;99.90
9847;DHT22;4962;50.084;8.794;2022-12-07T12:09:25;11.10;99.90
9847;DHT22;4962;50.084;8.794;2022-12-07T12:12:08;11.00;99.90
9847;DHT22;4962;50.084;8.794;2022-12-07T12:14:48;11.00;99.90
9847;DHT22;4962;50.084;8.794;2022-12-07T12:20:40;11.00;99.90
9847;DHT22;4962;50.084;8.794;2022-12-07T12:23:17;11.00;99.90
9847;DHT22;4962;50.084;8.794;2022-12-07T12:25:47;11.00;99.90
9847;DHT22;4962;50.084;8.794;2022-12-07T12:28:25;11.10;99.90
9847;DHT22;4962;50.084;8.794;2022-12-07T12:31:11;11.10;99.90
9847;DHT22;4962;50.084;8.794;2022-12-07T12:33:44;11.10;99.90
9847;DHT22;4962;50.084;8.794;2022-12-07T12:36:21;11.10;99.90
9847;DHT22;4962;50.084;8.794;2022-12-07T12:39:08;11.10;99.90
9847;DHT22;4962;50.084;8.794;2022-12-07T12:41:53;11.10;99.90
9847;DHT22;4962;50.084;8.794;2022-12-07T12:44:40;11.20;99.90
9847;DHT22;4962;50.084;8.794;2022-12-07T12:50:19;11.10;99.90
9847;DHT22;4962;50.084;8.794;2022-12-07T12:53:02;11.10;99.90
9847;DHT22;4962;50.084;8.794;2022-12-07T12:58:43;11.10;99.90
9847;DHT22;4962;50.084;8.794;2022-12-07T13:01:44;11.10;99.90
9847;DHT22;4962;50.084;8.794;2022-12-07T13:10:26;11.10;99.90
9847;DHT22;4962;50.084;8.794;2022-12-07T13:12:58;11.10;99.90
9847;DHT22;4962;50.084;8.794;2022-12-07T13:15:35;11.10;99.90
9847;DHT22;4962;50.084;8.794;2022-12-07T13:18:04;11.10;99.90
9847;DHT22;4962;50.084;8.794;2022-12-07T13:20:53;11.20;99.90
9847;DHT22;4962;50.084;8.794;2022-12-07T13:23:23;11.20;99.90
9847;DHT22;4962;50.084;8.794;2022-12-07T13:25:59;11.20;99.90
9847;DHT22;4962;50.084;8.794;2022-12-07T13:28:33;11.20;99.90
9847;DHT22;4962;50.084;8.794;2022-12-07T13:31:20;11.20;99.90
9847;DHT22;4962;50.084;8.794;2022-12-07T13:33:50;11.20;99.90
9847;DHT22;4962;50.084;8.794;2022-12-07T13:36:22;11.20;99.90
9847;DHT22;4962;50.084;8.794;2022-12-07T13:38:53;11.20;99.90
9847;DHT22;4962;50.084;8.794;2022-12-07T13:41:29;11.10;99.90
9847;DHT22;4962;50.084;8.794;2022-12-07T13:44:01;11.10;99.90
9847;DHT22;4962;50.084;8.794;2022-12-07T13:46:44;11.00;99.90
9847;DHT22;4962;50.084;8.794;2022-12-07T13:49:19;11.00;99.90
9847;DHT22;4962;50.084;8.794;2022-12-07T13:51:48;11.00;99.90
9847;DHT22;4962;50.084;8.794;2022-12-07T13:54:15;11.00;99.90
9847;DHT22;4962;50.084;8.794;2022-12-07T13:56:43;11.00;99.90
9847;DHT22;4962;50.084;8.794;2022-12-07T13:59:14;11.00;99.90
9847;DHT22;4962;50.084;8.794;2022-12-07T14:01:45;10.90;99.90
9847;DHT22;4962;50.084;8.794;2022-12-07T14:04:34;10.90;99.90
9847;DHT22;4962;50.084;8.794;2022-12-07T14:07:22;10.90;99.90
9847;DHT22;4962;50.084;8.794;2022-12-07T14:09:57;10.90;99.90
9847;DHT22;4962;50.084;8.794;2022-12-07T14:12:27;10.90;99.90
9847;DHT22;4962;50.084;8.794;2022-12-07T14:14:56;10.90;99.90
9847;DHT22;4962;50.084;8.794;2022-12-07T14:17:27;10.90;99.90
9847;DHT22;4962;50.084;8.794;2022-12-07T14:19:55;10.90;99.90
9847;DHT22;4962;50.084;8.794;2022-12-07T14:22:25;10.80;99.90
9847;DHT22;4962;50.084;8.794;2022-12-07T14:25:16;10.80;99.90
9847;DHT22;4962;50.084;8.794;2022-12-07T14:27:49;10.80;99.90
9847;DHT22;4962;50.084;8.794;2022-12-07T14:30:18;10.80;99.90
9847;DHT22;4962;50.084;8.794;2022-12-07T14:32:49;10.80;99.90
9847;DHT22;4962;50.084;8.794;2022-12-07T14:35:18;10.80;99.90
9847;DHT22;4962;50.084;8.794;2022-12-07T14:37:49;10.80;99.90
9847;DHT22;4962;50.084;8.794;2022-12-07T14:40:18;10.70;99.90
9847;DHT22;4962;50.084;8.794;2022-12-07T14:42:47;10.70;99.90
9847;DHT22;4962;50.084;8.794;2022-12-07T14:45:18;10.70;99.90
9847;DHT22;4962;50.084;8.794;2022-12-07T14:47:47;10.60;99.90
9847;DHT22;4962;50.084;8.794;2022-12-07T14:50:15;10.60;99.90
9847;DHT22;4962;50.084;8.794;2022-12-07T14:52:45;10.60;99.90
9847;DHT22;4962;50.084;8.794;2022-12-07T14:55:14;10.50;99.90
9847;DHT22;4962;50.084;8.794;2022-12-07T14:57:42;10.50;99.90
9847;DHT22;4962;50.084;8.794;2022-12-07T15:00:14;10.50;99.90
9847;DHT22;4962;50.084;8.794;2022-12-07T15:03:13;10.40;99.90
9847;DHT22;4962;50.084;8.794;2022-12-07T15:05:40;10.40;99.90
9847;DHT22;4962;50.084;8.794;2022-12-07T15:08:08;10.40;99.90
9847;DHT22;4962;50.084;8.794;2022-12-07T15:10:35;10.30;99.90
9847;DHT22;4962;50.084;8.794;2022-12-07T15:13:04;10.30;99.90
9847;DHT22;4962;50.084;8.794;2022-12-07T15:15:45;10.30;99.90
9847;DHT22;4962;50.084;8.794;2022-12-07T15:18:14;10.20;99.90
9847;DHT22;4962;50.084;8.794;2022-12-07T15:20:41;10.30;99.90
9847;DHT22;4962;50.084;8.794;2022-12-07T15:23:08;10.20;99.90
9847;DHT22;4962;50.084;8.794;2022-12-07T15:25:35;10.20;99.90
9847;DHT22;4962;50.084;8.794;2022-12-07T15:28:03;10.10;99.90
9847;DHT22;4962;50.084;8.794;2022-12-07T15:30:29;10.20;99.90
9847;DHT22;4962;50.084;8.794;2022-12-07T15:32:56;10.20;99.90
9847;DHT22;4962;50.084;8.794;2022-12-07T15:35:24;10.20;99.90
9847;DHT22;4962;50.084;8.794;2022-12-07T15:37:58;10.20;99.90
9847;DHT22;4962;50.084;8.794;2022-12-07T15:40:25;10.20;99.90
9847;DHT22;4962;50.084;8.794;2022-12-07T15:42:52;10.10;99.90
9847;DHT22;4962;50.084;8.794;2022-12-07T15:45:20;10.10;99.90
9847;DHT22;4962;50.084;8.794;2022-12-07T15:47:46;10.20;99.90
9847;DHT22;4962;50.084;8.794;2022-12-07T15:50:14;10.20;99.90
9847;DHT22;4962;50.084;8.794;2022-12-07T15:52:44;10.10;99.90
9847;DHT22;4962;50.084;8.794;2022-12-07T15:55:10;10.20;99.90
9847;DHT22;4962;50.084;8.794;2022-12-07T15:57:39;10.20;99.90
9847;DHT22;4962;50.084;8.794;2022-12-07T16:00:09;10.10;99.90
9847;DHT22;4962;50.084;8.794;2022-12-07T16:02:36;10.10;99.90
9847;DHT22;4962;50.084;8.794;2022-12-07T16:05:06;10.10;99.90
9847;DHT22;4962;50.084;8.794;2022-12-07T16:07:34;10.10;99.90
9847;DHT22;4962;50.084;8.794;2022-12-07T16:10:03;10.20;99.90
9847;DHT22;4962;50.084;8.794;2022-12-07T16:12:30;10.10;99.90
9847;DHT22;4962;50.084;8.794;2022-12-07T16:14:57;10.30;99.90
9847;DHT22;4962;50.084;8.794;2022-12-07T16:17:24;10.20;99.90
9847;DHT22;4962;50.084;8.794;2022-12-07T16:19:51;10.20;99.90
9847;DHT22;4962;50.084;8.794;2022-12-07T16:22:18;10.20;99.90
9847;DHT22;4962;50.084;8.794;2022-12-07T16:24:45;10.20;99.90
9847;DHT22;4962;50.084;8.794;2022-12-07T16:27:14;10.20;99.90
9847;DHT22;4962;50.084;8.794;2022-12-07T16:29:41;10.20;99.90
9847;DHT22;4962;50.084;8.794;2022-12-07T16:32:08;10.20;99.90
9847;DHT22;4962;50.084;8.794;2022-12-07T16:34:35;10.20;99.90
9847;DHT22;4962;50.084;8.794;2022-12-07T16:37:01;10.20;99.90
9847;DHT22;4962;50.084;8.794;2022-12-07T16:39:28;10.20;99.90
9847;DHT22;4962;50.084;8.794;2022-12-07T16:42:01;10.20;99.90
9847;DHT22;4962;50.084;8.794;2022-12-07T16:44:32;10.20;99.90
9847;DHT22;4962;50.084;8.794;2022-12-07T16:46:59;10.20;99.90
9847;DHT22;4962;50.084;8.794;2022-12-07T16:49:27;10.20;99.90
9847;DHT22;4962;50.084;8.794;2022-12-07T16:51:55;10.20;99.90
9847;DHT22;4962;50.084;8.794;2022-12-07T16:54:25;10.20;99.90
9847;DHT22;4962;50.084;8.794;2022-12-07T16:56:56;10.20;99.90
9847;DHT22;4962;50.084;8.794;2022-12-07T16:59:23;10.10;99.90
9847;DHT22;4962;50.084;8.794;2022-12-07T17:01:51;10.20;99.90
9847;DHT22;4962;50.084;8.794;2022-12-07T17:04:18;10.20;99.90
9847;DHT22;4962;50.084;8.794;2022-12-07T17:06:45;10.20;99.90
9847;DHT22;4962;50.084;8.794;2022-12-07T17:09:12;10.20;99.90
9847;DHT22;4962;50.084;8.794;2022-12-07T17:11:38;10.20;99.90
9847;DHT22;4962;50.084;8.794;2022-12-07T17:14:05;10.20;99.90
9847;DHT22;4962;50.084;8.794;2022-12-07T17:16:51;10.20;99.90